sensor_id;sensor_type;location;lat;lon;timestamp;pressure;altitude;pressure_sealevel;temperature;humidity
44675;BME280;30388;52.038;-1.478;2023-03-15T00:01:43;64986.17;;;2.86;100.00
44675;BME280;30388;52.038;-1.478;2023-03-15T00:04:10;64992.70;;;2.94;100.00
44675;BME280;30388;52.038;-1.478;2023-03-15T00:06:37;65000.47;;;3.04;100.00
44675;BME280;30388;52.038;-1.478;2023-03-15T00:09:04;64985.51;;;3.33;100.00
44675;BME280;30388;52.038;-1.478;2023-03-15T00:11:31;65008.81;;;3.15;100.00
44675;BME280;30388;52.038;-1.478;2023-03-15T00:13:59;65000.42;;;3.04;100.00
44675;BME280;30388;52.038;-1.478;2023-03-15T00:16:26;64981.41;;;2.80;100.00
44675;BME280;30388;52.038;-1.478;2023-03-15T00:18:53;64943.58;;;2.58;100.00
44675;BME280;30388;52.038;-1.478;2023-03-15T00:21:20;64930.34;;;2.64;100.00
44675;BME280;30388;52.038;-1.478;2023-03-15T00:23:48;64934.60;;;2.46;100.00
44675;BME280;30388;52.038;-1.478;2023-03-15T00:26:15;64953.47;;;2.44;100.00
44675;BME280;30388;52.038;-1.478;2023-03-15T00:28:43;64968.84;;;2.64;100.00
44675;BME280;30388;52.038;-1.478;2023-03-15T00:31:13;64968.14;;;2.62;100.00
44675;BME280;30388;52.038;-1.478;2023-03-15T00:33:41;64957.98;;;2.98;100.00
44675;BME280;30388;52.038;-1.478;2023-03-15T00:36:09;64958.64;;;2.78;100.00
44675;BME280;30388;52.038;-1.478;2023-03-15T00:38:38;64958.71;;;2.50;100.00
44675;BME280;30388;52.038;-1.478;2023-03-15T00:41:08;64938.71;;;2.52;100.00
44675;BME280;30388;52.038;-1.478;2023-03-15T00:43:35;64962.65;;;3.04;100.00
44675;BME280;30388;52.038;-1.478;2023-03-15T00:46:04;64983.67;;;2.83;100.00
44675;BME280;30388;52.038;-1.478;2023-03-15T00:48:31;64995.30;;;2.98;100.00
44675;BME280;30388;52.038;-1.478;2023-03-15T00:51:02;65024.13;;;3.34;100.00
44675;BME280;30388;52.038;-1.478;2023-03-15T00:53:29;65008.83;;;3.15;100.00
44675;BME280;30388;52.038;-1.478;2023-03-15T00:55:56;64981.77;;;2.80;100.00
44675;BME280;30388;52.038;-1.478;2023-03-15T00:58:24;64954.04;;;2.71;100.00
44675;BME280;30388;52.038;-1.478;2023-03-15T01:00:51;64939.50;;;2.54;100.00
44675;BME280;30388;52.038;-1.478;2023-03-15T01:03:19;64964.18;;;3.07;100.00
44675;BME280;30388;52.038;-1.478;2023-03-15T01:05:47;64991.85;;;2.93;100.00
44675;BME280;30388;52.038;-1.478;2023-03-15T01:08:14;65004.80;;;3.09;100.00
44675;BME280;30388;52.038;-1.478;2023-03-15T01:10:42;64956.99;;;2.76;100.00
44675;BME280;30388;52.038;-1.478;2023-03-15T01:13:09;64940.46;;;2.76;100.00
44675;BME280;30388;52.038;-1.478;2023-03-15T01:15:36;64900.16;;;2.25;100.00
44675;BME280;30388;52.038;-1.478;2023-03-15T01:18:04;64936.30;;;2.71;100.00
44675;BME280;30388;52.038;-1.478;2023-03-15T01:20:31;65008.86;;;3.15;100.00
44675;BME280;30388;52.038;-1.478;2023-03-15T01:22:58;65021.79;;;3.31;100.00
44675;BME280;30388;52.038;-1.478;2023-03-15T01:25:26;64954.27;;;2.45;100.00
44675;BME280;30388;52.038;-1.478;2023-03-15T01:27:53;64905.66;;;2.32;100.00
44675;BME280;30388;52.038;-1.478;2023-03-15T01:30:20;64905.88;;;2.33;100.00
44675;BME280;30388;52.038;-1.478;2023-03-15T01:32:48;64937.32;;;2.72;100.00
44675;BME280;30388;52.038;-1.478;2023-03-15T01:35:15;64965.54;;;3.09;100.00
44675;BME280;30388;52.038;-1.478;2023-03-15T01:37:42;64982.88;;;3.31;100.00
44675;BME280;30388;52.038;-1.478;2023-03-15T01:40:12;64977.08;;;2.75;100.00
44675;BME280;30388;52.038;-1.478;2023-03-15T01:43:14;64959.25;;;3.00;100.00
44675;BME280;30388;52.038;-1.478;2023-03-15T01:45:56;64954.95;;;2.73;100.00
44675;BME280;30388;52.038;-1.478;2023-03-15T01:48:28;64973.65;;;2.69;100.00
44675;BME280;30388;52.038;-1.478;2023-03-15T01:51:00;64989.64;;;2.90;100.00
44675;BME280;30388;52.038;-1.478;2023-03-15T01:53:30;64979.41;;;3.05;100.00
44675;BME280;30388;52.038;-1.478;2023-03-15T01:55:59;64999.11;;;3.03;100.00
44675;BME280;30388;52.038;-1.478;2023-03-15T01:58:27;64970.09;;;2.66;100.00
44675;BME280;30388;52.038;-1.478;2023-03-15T02:00:55;64952.77;;;2.43;100.00
44675;BME280;30388;52.038;-1.478;2023-03-15T02:03:24;64958.98;;;2.52;100.00
44675;BME280;30388;52.038;-1.478;2023-03-15T02:05:58;64964.47;;;2.58;100.00
44675;BME280;30388;52.038;-1.478;2023-03-15T02:08:29;64954.24;;;2.94;100.00
44675;BME280;30388;52.038;-1.478;2023-03-15T02:11:00;64973.84;;;2.71;100.00
44675;BME280;30388;52.038;-1.478;2023-03-15T02:13:29;64944.13;;;2.59;100.00
44675;BME280;30388;52.038;-1.478;2023-03-15T02:15:56;64948.03;;;2.86;100.00
44675;BME280;30388;52.038;-1.478;2023-03-15T02:18:24;64939.39;;;2.75;100.00
44675;BME280;30388;52.038;-1.478;2023-03-15T02:20:58;64929.54;;;2.63;100.00
44675;BME280;30388;52.038;-1.478;2023-03-15T02:23:28;64920.17;;;2.51;100.00
44675;BME280;30388;52.038;-1.478;2023-03-15T02:26:01;64943.29;;;2.80;100.00
44675;BME280;30388;52.038;-1.478;2023-03-15T02:28:33;64957.26;;;2.49;100.00
44675;BME280;30388;52.038;-1.478;2023-03-15T02:31:01;64935.89;;;2.70;100.00
44675;BME280;30388;52.038;-1.478;2023-03-15T02:33:30;64921.90;;;2.31;100.00
44675;BME280;30388;52.038;-1.478;2023-03-15T02:36:08;64918.68;;;2.27;100.00
44675;BME280;30388;52.038;-1.478;2023-03-15T02:38:35;64906.63;;;2.33;100.00
44675;BME280;30388;52.038;-1.478;2023-03-15T02:41:03;64908.68;;;2.36;100.00
44675;BME280;30388;52.038;-1.478;2023-03-15T02:43:32;64908.70;;;2.14;100.00
44675;BME280;30388;52.038;-1.478;2023-03-15T02:46:01;64883.82;;;2.04;100.00
44675;BME280;30388;52.038;-1.478;2023-03-15T02:48:31;64911.71;;;2.18;100.00
44675;BME280;30388;52.038;-1.478;2023-03-15T02:51:00;64921.43;;;2.52;100.00
44675;BME280;30388;52.038;-1.478;2023-03-15T02:53:28;64928.03;;;2.38;100.00
44675;BME280;30388;52.038;-1.478;2023-03-15T02:55:55;64934.80;;;2.47;100.00
44675;BME280;30388;52.038;-1.478;2023-03-15T02:58:23;64938.51;;;2.74;100.00
44675;BME280;30388;52.038;-1.478;2023-03-15T03:00:52;64946.06;;;2.62;100.00
44675;BME280;30388;52.038;-1.478;2023-03-15T03:03:19;64940.21;;;2.27;100.00
44675;BME280;30388;52.038;-1.478;2023-03-15T03:05:46;64928.45;;;2.61;100.00
44675;BME280;30388;52.038;-1.478;2023-03-15T03:08:13;64935.10;;;2.47;100.00
44675;BME280;30388;52.038;-1.478;2023-03-15T03:10:41;64932.51;;;2.66;100.00
44675;BME280;30388;52.038;-1.478;2023-03-15T03:13:08;64931.83;;;2.65;100.00
44675;BME280;30388;52.038;-1.478;2023-03-15T03:15:35;64902.82;;;2.28;100.00
44675;BME280;30388;52.038;-1.478;2023-03-15T03:18:03;64903.36;;;2.29;100.00
44675;BME280;30388;52.038;-1.478;2023-03-15T03:20:30;64882.94;;;2.03;100.00
44675;BME280;30388;52.038;-1.478;2023-03-15T03:22:58;64880.80;;;2.00;100.00
44675;BME280;30388;52.038;-1.478;2023-03-15T03:25:25;64865.12;;;1.58;100.00
44675;BME280;30388;52.038;-1.478;2023-03-15T03:27:52;64898.62;;;2.23;100.00
44675;BME280;30388;52.038;-1.478;2023-03-15T03:30:20;64884.87;;;2.06;100.00
44675;BME280;30388;52.038;-1.478;2023-03-15T03:32:47;64901.71;;;2.04;100.00
44675;BME280;30388;52.038;-1.478;2023-03-15T03:35:15;64888.47;;;2.10;100.00
44675;BME280;30388;52.038;-1.478;2023-03-15T03:37:42;64886.25;;;2.07;100.00
44675;BME280;30388;52.038;-1.478;2023-03-15T03:40:11;64882.17;;;1.80;100.00
44675;BME280;30388;52.038;-1.478;2023-03-15T03:42:38;64863.33;;;1.78;100.00
44675;BME280;30388;52.038;-1.478;2023-03-15T03:45:07;64882.55;;;2.02;100.00
44675;BME280;30388;52.038;-1.478;2023-03-15T03:47:34;64890.97;;;1.64;100.00
44675;BME280;30388;52.038;-1.478;2023-03-15T03:50:02;64893.90;;;2.17;100.00
44675;BME280;30388;52.038;-1.478;2023-03-15T03:52:29;64893.60;;;2.39;100.00
44675;BME280;30388;52.038;-1.478;2023-03-15T03:54:56;64893.42;;;2.16;100.00
44675;BME280;30388;52.038;-1.478;2023-03-15T03:57:24;64897.62;;;2.00;100.00
44675;BME280;30388;52.038;-1.478;2023-03-15T03:59:51;64861.81;;;1.76;100.00
44675;BME280;30388;52.038;-1.478;2023-03-15T04:02:18;64854.70;;;1.66;100.00
44675;BME280;30388;52.038;-1.478;2023-03-15T04:04:46;64871.32;;;2.10;100.00
44675;BME280;30388;52.038;-1.478;2023-03-15T04:07:13;64899.32;;;2.24;100.00
44675;BME280;30388;52.038;-1.478;2023-03-15T04:09:41;64909.26;;;2.37;100.00
44675;BME280;30388;52.038;-1.478;2023-03-15T04:12:08;64913.76;;;2.43;100.00
44675;BME280;30388;52.038;-1.478;2023-03-15T04:14:35;64902.68;;;2.06;100.00
44675;BME280;30388;52.038;-1.478;2023-03-15T04:17:03;64915.23;;;2.21;100.00
44675;BME280;30388;52.038;-1.478;2023-03-15T04:19:30;64905.97;;;2.33;100.00
44675;BME280;30388;52.038;-1.478;2023-03-15T04:21:58;64882.67;;;2.03;100.00
44675;BME280;30388;52.038;-1.478;2023-03-15T04:24:25;64891.95;;;2.14;100.00
44675;BME280;30388;52.038;-1.478;2023-03-15T04:26:52;64905.86;;;2.32;100.00
44675;BME280;30388;52.038;-1.478;2023-03-15T04:29:20;64913.09;;;2.41;100.00
44675;BME280;30388;52.038;-1.478;2023-03-15T04:31:47;64901.30;;;2.04;100.00
44675;BME280;30388;52.038;-1.478;2023-03-15T04:34:15;64886.62;;;2.07;100.00
44675;BME280;30388;52.038;-1.478;2023-03-15T04:36:42;64892.13;;;2.14;100.00
44675;BME280;30388;52.038;-1.478;2023-03-15T04:39:09;64867.57;;;1.61;100.00
44675;BME280;30388;52.038;-1.478;2023-03-15T04:41:37;64895.74;;;1.98;100.00
44675;BME280;30388;52.038;-1.478;2023-03-15T04:44:05;64893.42;;;2.17;100.00
44675;BME280;30388;52.038;-1.478;2023-03-15T04:46:32;64903.45;;;2.29;100.00
44675;BME280;30388;52.038;-1.478;2023-03-15T04:49:00;64899.33;;;1.75;100.00
44675;BME280;30388;52.038;-1.478;2023-03-15T04:51:27;64902.30;;;2.06;100.00
44675;BME280;30388;52.038;-1.478;2023-03-15T04:53:55;64899.15;;;2.24;100.00
44675;BME280;30388;52.038;-1.478;2023-03-15T04:56:22;64903.77;;;2.29;100.00
44675;BME280;30388;52.038;-1.478;2023-03-15T04:58:50;64889.93;;;2.13;100.00
44675;BME280;30388;52.038;-1.478;2023-03-15T05:01:17;64882.42;;;2.03;100.00
44675;BME280;30388;52.038;-1.478;2023-03-15T05:03:44;64874.23;;;1.93;100.00
44675;BME280;30388;52.038;-1.478;2023-03-15T05:06:11;64882.03;;;2.02;100.00
44675;BME280;30388;52.038;-1.478;2023-03-15T05:08:39;64892.41;;;2.16;100.00
44675;BME280;30388;52.038;-1.478;2023-03-15T05:11:06;64943.56;;;2.80;100.00
44675;BME280;30388;52.038;-1.478;2023-03-15T05:13:34;64974.76;;;3.20;100.00
44675;BME280;30388;52.038;-1.478;2023-03-15T05:16:01;64920.85;;;2.51;100.00
44675;BME280;30388;52.038;-1.478;2023-03-15T05:18:29;64894.60;;;2.18;100.00
44675;BME280;30388;52.038;-1.478;2023-03-15T05:20:56;64868.93;;;1.85;100.00
44675;BME280;30388;52.038;-1.478;2023-03-15T05:23:24;64864.30;;;1.80;100.00
44675;BME280;30388;52.038;-1.478;2023-03-15T05:25:51;64902.02;;;2.28;100.00
44675;BME280;30388;52.038;-1.478;2023-03-15T05:28:20;64931.36;;;2.65;100.00
44675;BME280;30388;52.038;-1.478;2023-03-15T05:30:47;64918.27;;;2.49;100.00
44675;BME280;30388;52.038;-1.478;2023-03-15T05:33:15;64909.52;;;2.38;100.00
44675;BME280;30388;52.038;-1.478;2023-03-15T05:35:43;64913.37;;;2.42;100.00
44675;BME280;30388;52.038;-1.478;2023-03-15T05:38:10;64907.42;;;2.35;100.00
44675;BME280;30388;52.038;-1.478;2023-03-15T05:40:37;64899.26;;;2.24;100.00
44675;BME280;30388;52.038;-1.478;2023-03-15T05:43:04;64887.61;;;2.09;100.00
44675;BME280;30388;52.038;-1.478;2023-03-15T05:45:32;64887.02;;;2.08;100.00
44675;BME280;30388;52.038;-1.478;2023-03-15T05:47:59;64893.76;;;2.18;100.00
44675;BME280;30388;52.038;-1.478;2023-03-15T05:50:27;64881.76;;;2.02;100.00
44675;BME280;30388;52.038;-1.478;2023-03-15T05:52:55;64882.99;;;2.03;100.00
44675;BME280;30388;52.038;-1.478;2023-03-15T05:55:23;64885.67;;;2.08;100.00
44675;BME280;30388;52.038;-1.478;2023-03-15T05:57:50;64889.29;;;2.11;100.00
44675;BME280;30388;52.038;-1.478;2023-03-15T06:00:18;64860.72;;;1.75;100.00
44675;BME280;30388;52.038;-1.478;2023-03-15T06:02:46;64872.89;;;1.90;100.00
44675;BME280;30388;52.038;-1.478;2023-03-15T06:05:13;64874.83;;;1.93;100.00
44675;BME280;30388;52.038;-1.478;2023-03-15T06:07:40;64885.57;;;2.07;100.00
44675;BME280;30388;52.038;-1.478;2023-03-15T06:10:09;64884.41;;;2.05;100.00
44675;BME280;30388;52.038;-1.478;2023-03-15T06:12:36;64859.06;;;1.73;100.00
44675;BME280;30388;52.038;-1.478;2023-03-15T06:15:04;64855.20;;;1.68;100.00
44675;BME280;30388;52.038;-1.478;2023-03-15T06:17:32;64866.16;;;1.82;100.00
44675;BME280;30388;52.038;-1.478;2023-03-15T06:19:59;64879.08;;;1.98;100.00
44675;BME280;30388;52.038;-1.478;2023-03-15T06:22:27;64880.21;;;1.99;100.00
44675;BME280;30388;52.038;-1.478;2023-03-15T06:24:55;64857.70;;;1.71;100.00
44675;BME280;30388;52.038;-1.478;2023-03-15T06:27:22;64907.84;;;2.35;100.00
44675;BME280;30388;52.038;-1.478;2023-03-15T06:29:49;64908.24;;;2.36;100.00
44675;BME280;30388;52.038;-1.478;2023-03-15T06:32:17;64884.37;;;2.27;100.00
44675;BME280;30388;52.038;-1.478;2023-03-15T06:34:44;64888.41;;;2.32;100.00
44675;BME280;30388;52.038;-1.478;2023-03-15T06:37:11;64891.22;;;2.36;100.00
44675;BME280;30388;52.038;-1.478;2023-03-15T06:39:39;64900.50;;;2.25;100.00
44675;BME280;30388;52.038;-1.478;2023-03-15T06:42:07;64908.03;;;2.34;100.00
44675;BME280;30388;52.038;-1.478;2023-03-15T06:44:34;64927.44;;;2.60;100.00
44675;BME280;30388;52.038;-1.478;2023-03-15T06:47:01;64936.89;;;2.23;100.00
44675;BME280;30388;52.038;-1.478;2023-03-15T06:49:28;64960.23;;;2.79;100.00
44675;BME280;30388;52.038;-1.478;2023-03-15T06:51:56;65047.94;;;3.64;100.00
44675;BME280;30388;52.038;-1.478;2023-03-15T06:54:23;64992.60;;;2.94;100.00
44675;BME280;30388;52.038;-1.478;2023-03-15T06:56:51;65023.43;;;3.33;100.00
44675;BME280;30388;52.038;-1.478;2023-03-15T06:59:18;65028.05;;;3.39;100.00
44675;BME280;30388;52.038;-1.478;2023-03-15T07:01:45;65049.11;;;3.66;100.00
44675;BME280;30388;52.038;-1.478;2023-03-15T07:04:13;65016.94;;;3.25;100.00
44675;BME280;30388;52.038;-1.478;2023-03-15T07:06:40;65032.99;;;3.45;100.00
44675;BME280;30388;52.038;-1.478;2023-03-15T07:09:08;65069.52;;;3.92;100.00
44675;BME280;30388;52.038;-1.478;2023-03-15T07:11:36;65052.29;;;3.70;100.00
44675;BME280;30388;52.038;-1.478;2023-03-15T07:14:03;65092.05;;;4.20;100.00
44675;BME280;30388;52.038;-1.478;2023-03-15T07:16:30;65127.91;;;4.67;100.00
44675;BME280;30388;52.038;-1.478;2023-03-15T07:18:58;65167.91;;;4.95;100.00
44675;BME280;30388;52.038;-1.478;2023-03-15T07:21:25;65119.80;;;4.33;100.00
44675;BME280;30388;52.038;-1.478;2023-03-15T07:23:53;65108.85;;;4.20;100.00
44675;BME280;30388;52.038;-1.478;2023-03-15T07:26:20;65166.84;;;4.93;100.00
44675;BME280;30388;52.038;-1.478;2023-03-15T07:28:47;65112.50;;;4.25;100.00
44675;BME280;30388;52.038;-1.478;2023-03-15T07:31:14;65107.27;;;4.17;100.00
44675;BME280;30388;52.038;-1.478;2023-03-15T07:33:42;65105.82;;;4.16;100.00
44675;BME280;30388;52.038;-1.478;2023-03-15T07:36:09;65120.01;;;4.56;100.00
44675;BME280;30388;52.038;-1.478;2023-03-15T07:38:37;65156.03;;;4.57;100.00
44675;BME280;30388;52.038;-1.478;2023-03-15T07:41:05;65139.18;;;4.36;100.00
44675;BME280;30388;52.038;-1.478;2023-03-15T07:43:33;65141.91;;;4.61;100.00
44675;BME280;30388;52.038;-1.478;2023-03-15T07:46:01;65155.49;;;4.56;100.00
44675;BME280;30388;52.038;-1.478;2023-03-15T07:48:28;65196.36;;;5.08;100.00
44675;BME280;30388;52.038;-1.478;2023-03-15T07:51:00;65199.32;;;5.13;100.00
44675;BME280;30388;52.038;-1.478;2023-03-15T07:53:28;65178.92;;;4.86;100.00
44675;BME280;30388;52.038;-1.478;2023-03-15T07:55:55;65201.13;;;5.14;100.00
44675;BME280;30388;52.038;-1.478;2023-03-15T07:58:22;65199.77;;;4.87;100.00
44675;BME280;30388;52.038;-1.478;2023-03-15T08:00:52;65216.68;;;5.34;100.00
44675;BME280;30388;52.038;-1.478;2023-03-15T08:03:19;65218.60;;;5.36;100.00
44675;BME280;30388;52.038;-1.478;2023-03-15T08:05:47;65161.48;;;4.64;100.00
44675;BME280;30388;52.038;-1.478;2023-03-15T08:08:14;65143.64;;;4.42;100.00
44675;BME280;30388;52.038;-1.478;2023-03-15T08:10:43;65133.54;;;4.72;100.00
44675;BME280;30388;52.038;-1.478;2023-03-15T08:13:10;65150.42;;;4.51;100.00
44675;BME280;30388;52.038;-1.478;2023-03-15T08:15:37;65162.28;;;4.66;100.00
44675;BME280;30388;52.038;-1.478;2023-03-15T08:18:04;65159.06;;;5.05;100.00
44675;BME280;30388;52.038;-1.478;2023-03-15T08:20:32;65174.65;;;5.03;100.00
44675;BME280;30388;52.038;-1.478;2023-03-15T08:22:59;65159.65;;;4.62;100.00
44675;BME280;30388;52.038;-1.478;2023-03-15T08:25:26;65119.98;;;4.55;100.00
44675;BME280;30388;52.038;-1.478;2023-03-15T08:27:54;65097.60;;;4.27;100.00
44675;BME280;30388;52.038;-1.478;2023-03-15T08:30:21;65145.78;;;4.67;100.00
44675;BME280;30388;52.038;-1.478;2023-03-15T08:32:49;65169.22;;;4.96;100.00
44675;BME280;30388;52.038;-1.478;2023-03-15T08:35:19;65103.44;;;4.36;100.00
44675;BME280;30388;52.038;-1.478;2023-03-15T08:37:46;65131.30;;;4.49;100.00
44675;BME280;30388;52.038;-1.478;2023-03-15T08:40:14;65198.58;;;5.12;100.00
44675;BME280;30388;52.038;-1.478;2023-03-15T08:42:42;65151.98;;;4.75;100.00
44675;BME280;30388;52.038;-1.478;2023-03-15T08:45:10;65172.80;;;5.01;100.00
44675;BME280;30388;52.038;-1.478;2023-03-15T08:47:37;65203.28;;;5.17;100.00
44675;BME280;30388;52.038;-1.478;2023-03-15T08:50:07;65188.54;;;4.99;100.00
44675;BME280;30388;52.038;-1.478;2023-03-15T08:52:35;65199.95;;;5.13;100.00
44675;BME280;30388;52.038;-1.478;2023-03-15T08:55:03;65172.21;;;4.78;100.00
44675;BME280;30388;52.038;-1.478;2023-03-15T08:57:30;65195.50;;;5.07;100.00
44675;BME280;30388;52.038;-1.478;2023-03-15T08:59:57;65184.42;;;4.93;100.00
44675;BME280;30388;52.038;-1.478;2023-03-15T09:02:25;65231.49;;;5.53;100.00
44675;BME280;30388;52.038;-1.478;2023-03-15T09:04:52;65219.47;;;5.38;100.00
44675;BME280;30388;52.038;-1.478;2023-03-15T09:07:19;65191.54;;;5.03;100.00
44675;BME280;30388;52.038;-1.478;2023-03-15T09:09:47;65269.55;;;6.02;100.00
44675;BME280;30388;52.038;-1.478;2023-03-15T09:12:15;65283.13;;;5.70;100.00
44675;BME280;30388;52.038;-1.478;2023-03-15T09:14:42;65267.38;;;6.00;100.00
44675;BME280;30388;52.038;-1.478;2023-03-15T09:17:10;65313.57;;;6.09;100.00
44675;BME280;30388;52.038;-1.478;2023-03-15T09:19:38;65223.04;;;5.17;100.00
44675;BME280;30388;52.038;-1.478;2023-03-15T09:22:06;65291.82;;;6.30;100.00
44675;BME280;30388;52.038;-1.478;2023-03-15T09:24:33;65179.99;;;4.88;100.00
44675;BME280;30388;52.038;-1.478;2023-03-15T09:27:01;65225.10;;;5.45;100.00
44675;BME280;30388;52.038;-1.478;2023-03-15T09:29:28;65190.25;;;5.24;100.00
44675;BME280;30388;52.038;-1.478;2023-03-15T09:31:57;65204.07;;;5.18;100.00
44675;BME280;30388;52.038;-1.478;2023-03-15T09:34:24;65225.25;;;5.45;100.00
44675;BME280;30388;52.038;-1.478;2023-03-15T09:36:52;65232.04;;;5.54;100.00
44675;BME280;30388;52.038;-1.478;2023-03-15T09:39:20;65247.13;;;5.73;100.00
44675;BME280;30388;52.038;-1.478;2023-03-15T09:41:51;65261.84;;;5.92;100.00
44675;BME280;30388;52.038;-1.478;2023-03-15T09:44:32;65187.51;;;4.96;100.00
44675;BME280;30388;52.038;-1.478;2023-03-15T09:47:08;65250.62;;;5.52;100.00
44675;BME280;30388;52.038;-1.478;2023-03-15T09:49:43;65330.21;;;6.30;100.00
44675;BME280;30388;52.038;-1.478;2023-03-15T09:52:21;65292.70;;;5.82;100.00
44675;BME280;30388;52.038;-1.478;2023-03-15T09:54:55;65320.39;;;6.40;100.00
44675;BME280;30388;52.038;-1.478;2023-03-15T09:57:30;65359.65;;;6.67;100.00
44675;BME280;30388;52.038;-1.478;2023-03-15T10:00:03;65350.57;;;6.56;100.00
44675;BME280;30388;52.038;-1.478;2023-03-15T10:02:31;65317.43;;;6.14;100.00
44675;BME280;30388;52.038;-1.478;2023-03-15T10:05:03;65346.63;;;6.51;100.00
44675;BME280;30388;52.038;-1.478;2023-03-15T10:07:34;65271.10;;;5.54;100.00
44675;BME280;30388;52.038;-1.478;2023-03-15T10:10:02;65296.77;;;5.87;100.00
44675;BME280;30388;52.038;-1.478;2023-03-15T10:12:33;65281.84;;;6.18;100.00
44675;BME280;30388;52.038;-1.478;2023-03-15T10:15:19;65285.72;;;5.96;100.00
44675;BME280;30388;52.038;-1.478;2023-03-15T10:18:03;65296.23;;;6.35;100.00
44675;BME280;30388;52.038;-1.478;2023-03-15T10:20:41;65252.74;;;5.80;100.00
44675;BME280;30388;52.038;-1.478;2023-03-15T10:23:14;65277.97;;;5.63;100.00
44675;BME280;30388;52.038;-1.478;2023-03-15T10:25:45;65264.39;;;5.68;100.00
44675;BME280;30388;52.038;-1.478;2023-03-15T10:28:16;65349.63;;;6.76;100.00
44675;BME280;30388;52.038;-1.478;2023-03-15T10:30:50;65337.03;;;6.39;100.00
44675;BME280;30388;52.038;-1.478;2023-03-15T10:33:27;65290.17;;;6.28;100.00
44675;BME280;30388;52.038;-1.478;2023-03-15T10:35:54;65322.99;;;6.20;100.00
44675;BME280;30388;52.038;-1.478;2023-03-15T10:38:23;65275.42;;;6.09;100.00
44675;BME280;30388;52.038;-1.478;2023-03-15T10:40:53;65271.49;;;5.55;100.00
44675;BME280;30388;52.038;-1.478;2023-03-15T10:43:23;65323.68;;;6.21;100.00
44675;BME280;30388;52.038;-1.478;2023-03-15T10:45:58;65352.85;;;6.58;100.00
44675;BME280;30388;52.038;-1.478;2023-03-15T10:48:26;65333.98;;;6.34;100.00
44675;BME280;30388;52.038;-1.478;2023-03-15T10:50:54;65354.66;;;7.09;100.00
44675;BME280;30388;52.038;-1.478;2023-03-15T10:53:22;65276.41;;;5.62;100.00
44675;BME280;30388;52.038;-1.478;2023-03-15T10:55:58;65375.76;;;6.88;100.00
44675;BME280;30388;52.038;-1.478;2023-03-15T10:58:28;65366.13;;;6.75;100.00
44675;BME280;30388;52.038;-1.478;2023-03-15T11:01:00;65377.86;;;6.90;100.00
44675;BME280;30388;52.038;-1.478;2023-03-15T11:03:28;65303.13;;;5.95;100.00
44675;BME280;30388;52.038;-1.478;2023-03-15T11:05:57;65303.92;;;5.96;100.00
44675;BME280;30388;52.038;-1.478;2023-03-15T11:08:35;65293.42;;;6.32;100.00
44675;BME280;30388;52.038;-1.478;2023-03-15T11:11:03;65285.48;;;5.95;100.00
44675;BME280;30388;52.038;-1.478;2023-03-15T11:13:32;65267.37;;;5.98;100.00
44675;BME280;30388;52.038;-1.478;2023-03-15T11:16:02;65269.68;;;5.74;100.00
44675;BME280;30388;52.038;-1.478;2023-03-15T11:18:33;65329.71;;;6.51;100.00
44675;BME280;30388;52.038;-1.478;2023-03-15T11:21:04;65282.83;;;5.92;100.00
44675;BME280;30388;52.038;-1.478;2023-03-15T11:23:36;65325.49;;;6.23;100.00
44675;BME280;30388;52.038;-1.478;2023-03-15T11:26:04;65305.03;;;5.97;100.00
44675;BME280;30388;52.038;-1.478;2023-03-15T11:28:32;65306.70;;;5.99;100.00
44675;BME280;30388;52.038;-1.478;2023-03-15T11:31:03;65361.79;;;6.43;100.00
44675;BME280;30388;52.038;-1.478;2023-03-15T11:33:38;65284.57;;;5.94;100.00
44675;BME280;30388;52.038;-1.478;2023-03-15T11:36:14;65220.37;;;5.12;100.00
44675;BME280;30388;52.038;-1.478;2023-03-15T11:38:44;65256.35;;;5.58;100.00
44675;BME280;30388;52.038;-1.478;2023-03-15T11:41:19;65302.16;;;5.94;100.00
44675;BME280;30388;52.038;-1.478;2023-03-15T11:43:58;65275.01;;;5.59;100.00
44675;BME280;30388;52.038;-1.478;2023-03-15T11:46:32;65331.79;;;6.31;100.00
44675;BME280;30388;52.038;-1.478;2023-03-15T11:49:09;65431.19;;;7.08;100.00
44675;BME280;30388;52.038;-1.478;2023-03-15T11:51:39;65373.60;;;6.58;100.00
44675;BME280;30388;52.038;-1.478;2023-03-15T11:54:10;65402.95;;;6.95;100.00
44675;BME280;30388;52.038;-1.478;2023-03-15T11:56:50;65367.44;;;6.77;100.00
44675;BME280;30388;52.038;-1.478;2023-03-15T11:59:23;65385.71;;;6.74;100.00
44675;BME280;30388;52.038;-1.478;2023-03-15T12:01:55;65306.43;;;5.72;100.00
44675;BME280;30388;52.038;-1.478;2023-03-15T12:04:36;65376.96;;;6.63;100.00
44675;BME280;30388;52.038;-1.478;2023-03-15T12:07:07;65261.75;;;5.65;100.00
44675;BME280;30388;52.038;-1.478;2023-03-15T12:09:51;65249.45;;;5.48;100.00
44675;BME280;30388;52.038;-1.478;2023-03-15T12:12:42;65328.02;;;6.27;100.00
44675;BME280;30388;52.038;-1.478;2023-03-15T12:16:19;65366.87;;;6.76;100.00
44675;BME280;30388;52.038;-1.478;2023-03-15T12:18:48;65307.31;;;5.99;100.00
44675;BME280;30388;52.038;-1.478;2023-03-15T12:21:20;65368.23;;;6.78;100.00
44675;BME280;30388;52.038;-1.478;2023-03-15T12:23:59;65394.87;;;7.11;100.00
44675;BME280;30388;52.038;-1.478;2023-03-15T12:26:39;65281.09;;;5.44;100.00
44675;BME280;30388;52.038;-1.478;2023-03-15T12:29:14;65324.68;;;6.22;100.00
44675;BME280;30388;52.038;-1.478;2023-03-15T12:31:48;65460.66;;;7.68;100.00
44675;BME280;30388;52.038;-1.478;2023-03-15T12:34:24;65497.70;;;8.15;100.00
44675;BME280;30388;52.038;-1.478;2023-03-15T12:36:55;65365.29;;;6.47;100.00
44675;BME280;30388;52.038;-1.478;2023-03-15T12:39:38;65415.67;;;7.11;100.00
44675;BME280;30388;52.038;-1.478;2023-03-15T12:42:12;65450.49;;;7.33;100.00
44675;BME280;30388;52.038;-1.478;2023-03-15T12:44:41;65363.82;;;6.72;100.00
44675;BME280;30388;52.038;-1.478;2023-03-15T12:47:09;65401.14;;;6.93;100.00
44675;BME280;30388;52.038;-1.478;2023-03-15T12:49:39;65370.80;;;6.54;100.00
44675;BME280;30388;52.038;-1.478;2023-03-15T12:52:41;65460.77;;;7.68;100.00
44675;BME280;30388;52.038;-1.478;2023-03-15T12:55:14;65395.34;;;7.12;100.00
44675;BME280;30388;52.038;-1.478;2023-03-15T12:57:47;65382.28;;;6.47;100.00
44675;BME280;30388;52.038;-1.478;2023-03-15T13:00:17;65361.99;;;6.70;100.00
44675;BME280;30388;52.038;-1.478;2023-03-15T13:02:48;65366.35;;;6.75;100.00